sensor_id;sensor_type;location;lat;lon;timestamp;P1;durP1;ratioP1;P2;durP2;ratioP2
22937;SDS011;11634;42.734;23.298;2022-08-03T00:01:36;2.47;;;1.50;;
22937;SDS011;11634;42.734;23.298;2022-08-03T00:04:04;1.60;;;1.50;;
22937;SDS011;11634;42.734;23.298;2022-08-03T00:06:29;1.70;;;1.60;;
22937;SDS011;11634;42.734;23.298;2022-08-03T00:08:55;5.03;;;1.63;;
22937;SDS011;11634;42.734;23.298;2022-08-03T00:11:20;3.05;;;1.73;;
22937;SDS011;11634;42.734;23.298;2022-08-03T00:13:45;2.33;;;1.80;;
22937;SDS011;11634;42.734;23.298;2022-08-03T00:16:11;2.10;;;1.90;;
22937;SDS011;11634;42.734;23.298;2022-08-03T00:18:37;1.60;;;1.50;;
22937;SDS011;11634;42.734;23.298;2022-08-03T00:21:03;3.03;;;1.73;;
22937;SDS011;11634;42.734;23.298;2022-08-03T00:23:28;5.00;;;2.20;;
22937;SDS011;11634;42.734;23.298;2022-08-03T00:25:54;8.20;;;2.60;;
22937;SDS011;11634;42.734;23.298;2022-08-03T00:28:19;2.53;;;1.33;;
22937;SDS011;11634;42.734;23.298;2022-08-03T00:30:45;4.40;;;1.45;;
22937;SDS011;11634;42.734;23.298;2022-08-03T00:33:15;2.53;;;1.55;;
22937;SDS011;11634;42.734;23.298;2022-08-03T00:35:42;2.25;;;1.20;;
22937;SDS011;11634;42.734;23.298;2022-08-03T00:38:08;2.70;;;1.60;;
22937;SDS011;11634;42.734;23.298;2022-08-03T00:40:33;1.80;;;1.50;;
22937;SDS011;11634;42.734;23.298;2022-08-03T00:43:00;3.13;;;1.50;;
22937;SDS011;11634;42.734;23.298;2022-08-03T00:45:30;2.40;;;1.77;;
22937;SDS011;11634;42.734;23.298;2022-08-03T00:47:56;2.45;;;2.05;;
22937;SDS011;11634;42.734;23.298;2022-08-03T00:50:22;5.55;;;2.30;;
22937;SDS011;11634;42.734;23.298;2022-08-03T00:52:48;2.67;;;1.60;;
22937;SDS011;11634;42.734;23.298;2022-08-03T00:55:14;2.30;;;1.70;;
22937;SDS011;11634;42.734;23.298;2022-08-03T00:57:41;3.72;;;1.52;;
22937;SDS011;11634;42.734;23.298;2022-08-03T01:00:07;2.63;;;1.67;;
22937;SDS011;11634;42.734;23.298;2022-08-03T01:02:33;2.28;;;1.63;;
22937;SDS011;11634;42.734;23.298;2022-08-03T01:04:58;2.42;;;1.70;;
22937;SDS011;11634;42.734;23.298;2022-08-03T01:07:32;7.85;;;1.70;;
22937;SDS011;11634;42.734;23.298;2022-08-03T01:12:51;5.70;;;1.80;;
22937;SDS011;11634;42.734;23.298;2022-08-03T01:18:07;1.75;;;1.65;;
22937;SDS011;11634;42.734;23.298;2022-08-03T01:20:35;2.80;;;1.70;;
22937;SDS011;11634;42.734;23.298;2022-08-03T01:30:55;2.53;;;1.80;;
22937;SDS011;11634;42.734;23.298;2022-08-03T01:33:24;2.38;;;1.92;;
22937;SDS011;11634;42.734;23.298;2022-08-03T01:38:25;2.03;;;1.80;;
22937;SDS011;11634;42.734;23.298;2022-08-03T01:40:51;1.52;;;1.42;;
22937;SDS011;11634;42.734;23.298;2022-08-03T01:43:18;2.17;;;1.48;;
22937;SDS011;11634;42.734;23.298;2022-08-03T01:45:45;2.22;;;2.00;;
22937;SDS011;11634;42.734;23.298;2022-08-03T01:48:11;4.28;;;1.80;;
22937;SDS011;11634;42.734;23.298;2022-08-03T01:50:39;3.88;;;2.10;;
22937;SDS011;11634;42.734;23.298;2022-08-03T01:53:05;2.10;;;1.80;;
22937;SDS011;11634;42.734;23.298;2022-08-03T01:55:32;2.25;;;2.05;;
22937;SDS011;11634;42.734;23.298;2022-08-03T01:57:58;4.22;;;2.20;;
22937;SDS011;11634;42.734;23.298;2022-08-03T02:00:24;3.05;;;2.20;;
22937;SDS011;11634;42.734;23.298;2022-08-03T02:02:50;2.25;;;2.03;;
22937;SDS011;11634;42.734;23.298;2022-08-03T02:05:16;5.43;;;2.25;;
22937;SDS011;11634;42.734;23.298;2022-08-03T02:07:43;2.25;;;2.05;;
22937;SDS011;11634;42.734;23.298;2022-08-03T02:10:10;3.67;;;2.17;;
22937;SDS011;11634;42.734;23.298;2022-08-03T02:12:37;2.00;;;1.90;;
22937;SDS011;11634;42.734;23.298;2022-08-03T02:15:03;4.68;;;2.15;;
22937;SDS011;11634;42.734;23.298;2022-08-03T02:17:29;2.72;;;2.20;;
22937;SDS011;11634;42.734;23.298;2022-08-03T02:19:56;2.13;;;1.92;;
22937;SDS011;11634;42.734;23.298;2022-08-03T02:22:23;3.53;;;2.20;;
22937;SDS011;11634;42.734;23.298;2022-08-03T02:24:49;2.75;;;2.55;;
22937;SDS011;11634;42.734;23.298;2022-08-03T02:27:17;3.08;;;2.60;;
22937;SDS011;11634;42.734;23.298;2022-08-03T02:29:44;2.35;;;2.15;;
22937;SDS011;11634;42.734;23.298;2022-08-03T02:32:12;3.85;;;2.13;;
22937;SDS011;11634;42.734;23.298;2022-08-03T02:34:39;3.50;;;2.25;;
22937;SDS011;11634;42.734;23.298;2022-08-03T02:37:04;4.15;;;2.28;;
22937;SDS011;11634;42.734;23.298;2022-08-03T02:39:31;3.53;;;2.13;;
22937;SDS011;11634;42.734;23.298;2022-08-03T02:41:57;2.50;;;1.95;;
22937;SDS011;11634;42.734;23.298;2022-08-03T02:44:26;2.60;;;2.30;;
22937;SDS011;11634;42.734;23.298;2022-08-03T02:46:54;7.53;;;2.20;;
22937;SDS011;11634;42.734;23.298;2022-08-03T02:49:21;2.83;;;2.08;;
22937;SDS011;11634;42.734;23.298;2022-08-03T02:51:47;2.17;;;1.98;;
22937;SDS011;11634;42.734;23.298;2022-08-03T02:54:15;3.42;;;2.20;;
22937;SDS011;11634;42.734;23.298;2022-08-03T02:56:42;3.13;;;2.10;;
22937;SDS011;11634;42.734;23.298;2022-08-03T02:59:09;2.40;;;2.17;;
22937;SDS011;11634;42.734;23.298;2022-08-03T03:01:37;4.32;;;2.58;;
22937;SDS011;11634;42.734;23.298;2022-08-03T03:04:04;4.93;;;2.60;;
22937;SDS011;11634;42.734;23.298;2022-08-03T03:06:30;3.42;;;2.42;;
22937;SDS011;11634;42.734;23.298;2022-08-03T03:08:55;2.53;;;2.33;;
22937;SDS011;11634;42.734;23.298;2022-08-03T03:11:21;3.20;;;2.85;;
22937;SDS011;11634;42.734;23.298;2022-08-03T03:13:47;3.08;;;2.85;;
22937;SDS011;11634;42.734;23.298;2022-08-03T03:16:13;2.38;;;2.13;;
22937;SDS011;11634;42.734;23.298;2022-08-03T03:18:38;3.08;;;2.03;;
22937;SDS011;11634;42.734;23.298;2022-08-03T03:21:04;2.00;;;1.80;;
22937;SDS011;11634;42.734;23.298;2022-08-03T03:23:32;3.28;;;1.90;;
22937;SDS011;11634;42.734;23.298;2022-08-03T03:25:58;3.95;;;1.85;;
22937;SDS011;11634;42.734;23.298;2022-08-03T03:28:24;2.05;;;1.80;;
22937;SDS011;11634;42.734;23.298;2022-08-03T03:30:50;2.88;;;2.30;;
22937;SDS011;11634;42.734;23.298;2022-08-03T03:33:16;2.78;;;2.22;;
22937;SDS011;11634;42.734;23.298;2022-08-03T03:35:42;4.25;;;2.22;;
22937;SDS011;11634;42.734;23.298;2022-08-03T03:38:09;2.58;;;2.00;;
22937;SDS011;11634;42.734;23.298;2022-08-03T03:40:36;3.38;;;2.05;;
22937;SDS011;11634;42.734;23.298;2022-08-03T03:43:02;3.88;;;1.92;;
22937;SDS011;11634;42.734;23.298;2022-08-03T03:45:27;6.53;;;2.63;;
22937;SDS011;11634;42.734;23.298;2022-08-03T03:47:55;2.55;;;1.90;;
22937;SDS011;11634;42.734;23.298;2022-08-03T03:50:20;3.60;;;2.28;;
22937;SDS011;11634;42.734;23.298;2022-08-03T03:52:46;2.22;;;2.03;;
22937;SDS011;11634;42.734;23.298;2022-08-03T03:55:14;3.13;;;1.95;;
22937;SDS011;11634;42.734;23.298;2022-08-03T03:57:39;3.42;;;1.90;;
22937;SDS011;11634;42.734;23.298;2022-08-03T04:00:05;2.25;;;2.05;;
22937;SDS011;11634;42.734;23.298;2022-08-03T04:02:31;1.80;;;1.70;;
22937;SDS011;11634;42.734;23.298;2022-08-03T04:04:56;3.85;;;2.00;;
22937;SDS011;11634;42.734;23.298;2022-08-03T04:07:45;2.25;;;2.05;;
22937;SDS011;11634;42.734;23.298;2022-08-03T04:10:40;4.40;;;1.88;;
22937;SDS011;11634;42.734;23.298;2022-08-03T04:13:26;5.00;;;2.17;;
22937;SDS011;11634;42.734;23.298;2022-08-03T04:15:53;3.42;;;2.30;;
22937;SDS011;11634;42.734;23.298;2022-08-03T04:18:21;6.15;;;2.50;;
22937;SDS011;11634;42.734;23.298;2022-08-03T04:20:47;2.90;;;2.60;;
22937;SDS011;11634;42.734;23.298;2022-08-03T04:23:14;3.75;;;2.63;;
22937;SDS011;11634;42.734;23.298;2022-08-03T04:25:40;3.30;;;2.38;;
22937;SDS011;11634;42.734;23.298;2022-08-03T04:28:08;3.22;;;2.40;;
22937;SDS011;11634;42.734;23.298;2022-08-03T04:30:35;4.35;;;2.70;;
22937;SDS011;11634;42.734;23.298;2022-08-03T04:33:03;4.70;;;2.78;;
22937;SDS011;11634;42.734;23.298;2022-08-03T04:35:30;5.00;;;2.40;;
22937;SDS011;11634;42.734;23.298;2022-08-03T04:37:56;4.95;;;2.97;;
22937;SDS011;11634;42.734;23.298;2022-08-03T04:40:24;5.57;;;2.85;;
22937;SDS011;11634;42.734;23.298;2022-08-03T04:42:52;3.00;;;2.70;;
22937;SDS011;11634;42.734;23.298;2022-08-03T04:45:19;2.85;;;1.83;;
22937;SDS011;11634;42.734;23.298;2022-08-03T04:47:46;5.03;;;2.58;;
22937;SDS011;11634;42.734;23.298;2022-08-03T04:50:11;3.17;;;2.33;;
22937;SDS011;11634;42.734;23.298;2022-08-03T04:52:37;4.72;;;2.42;;
22937;SDS011;11634;42.734;23.298;2022-08-03T04:55:03;4.25;;;2.10;;
22937;SDS011;11634;42.734;23.298;2022-08-03T04:57:28;3.90;;;2.20;;
22937;SDS011;11634;42.734;23.298;2022-08-03T04:59:54;5.30;;;2.42;;
22937;SDS011;11634;42.734;23.298;2022-08-03T05:02:20;5.30;;;2.13;;
22937;SDS011;11634;42.734;23.298;2022-08-03T05:04:46;6.10;;;2.40;;
22937;SDS011;11634;42.734;23.298;2022-08-03T05:07:12;4.43;;;2.20;;
22937;SDS011;11634;42.734;23.298;2022-08-03T05:09:37;4.05;;;2.50;;
22937;SDS011;11634;42.734;23.298;2022-08-03T05:12:03;3.25;;;2.25;;
22937;SDS011;11634;42.734;23.298;2022-08-03T05:14:30;6.25;;;2.83;;
22937;SDS011;11634;42.734;23.298;2022-08-03T05:16:55;6.97;;;2.53;;
22937;SDS011;11634;42.734;23.298;2022-08-03T05:19:21;4.25;;;2.95;;
22937;SDS011;11634;42.734;23.298;2022-08-03T05:21:46;3.65;;;2.72;;
22937;SDS011;11634;42.734;23.298;2022-08-03T05:24:11;5.57;;;2.63;;
22937;SDS011;11634;42.734;23.298;2022-08-03T05:26:37;5.45;;;2.72;;
22937;SDS011;11634;42.734;23.298;2022-08-03T05:29:02;3.45;;;2.63;;
22937;SDS011;11634;42.734;23.298;2022-08-03T05:31:28;5.35;;;2.50;;
22937;SDS011;11634;42.734;23.298;2022-08-03T05:33:53;4.55;;;2.65;;
22937;SDS011;11634;42.734;23.298;2022-08-03T05:36:18;4.03;;;2.75;;
22937;SDS011;11634;42.734;23.298;2022-08-03T05:38:44;4.28;;;2.65;;
22937;SDS011;11634;42.734;23.298;2022-08-03T05:41:09;4.85;;;3.47;;
22937;SDS011;11634;42.734;23.298;2022-08-03T05:43:35;5.10;;;3.15;;
22937;SDS011;11634;42.734;23.298;2022-08-03T05:46:00;5.13;;;3.20;;
22937;SDS011;11634;42.734;23.298;2022-08-03T05:48:26;7.15;;;3.70;;
22937;SDS011;11634;42.734;23.298;2022-08-03T05:50:51;6.93;;;3.55;;
22937;SDS011;11634;42.734;23.298;2022-08-03T05:53:17;7.78;;;3.90;;
22937;SDS011;11634;42.734;23.298;2022-08-03T05:55:42;6.63;;;3.42;;
22937;SDS011;11634;42.734;23.298;2022-08-03T05:58:09;8.25;;;3.97;;
22937;SDS011;11634;42.734;23.298;2022-08-03T06:00:37;11.77;;;3.95;;
22937;SDS011;11634;42.734;23.298;2022-08-03T06:03:08;6.25;;;3.80;;
22937;SDS011;11634;42.734;23.298;2022-08-03T06:05:34;5.22;;;3.72;;
22937;SDS011;11634;42.734;23.298;2022-08-03T06:08:01;8.32;;;4.35;;
22937;SDS011;11634;42.734;23.298;2022-08-03T06:10:28;4.47;;;3.75;;
22937;SDS011;11634;42.734;23.298;2022-08-03T06:12:53;7.50;;;4.00;;
22937;SDS011;11634;42.734;23.298;2022-08-03T06:15:18;7.40;;;3.90;;
22937;SDS011;11634;42.734;23.298;2022-08-03T06:17:47;6.88;;;3.83;;
22937;SDS011;11634;42.734;23.298;2022-08-03T06:20:17;6.10;;;3.55;;
22937;SDS011;11634;42.734;23.298;2022-08-03T06:22:43;5.05;;;3.60;;
22937;SDS011;11634;42.734;23.298;2022-08-03T06:25:08;6.28;;;3.90;;
22937;SDS011;11634;42.734;23.298;2022-08-03T06:27:34;5.63;;;3.40;;
22937;SDS011;11634;42.734;23.298;2022-08-03T06:30:02;5.35;;;3.63;;
22937;SDS011;11634;42.734;23.298;2022-08-03T06:32:27;8.20;;;4.15;;
22937;SDS011;11634;42.734;23.298;2022-08-03T06:34:56;7.32;;;3.60;;
22937;SDS011;11634;42.734;23.298;2022-08-03T06:37:21;6.93;;;3.85;;
22937;SDS011;11634;42.734;23.298;2022-08-03T06:39:47;5.95;;;3.33;;
22937;SDS011;11634;42.734;23.298;2022-08-03T06:42:12;5.43;;;4.10;;
22937;SDS011;11634;42.734;23.298;2022-08-03T06:44:38;5.90;;;4.30;;
22937;SDS011;11634;42.734;23.298;2022-08-03T06:47:03;7.60;;;3.80;;
22937;SDS011;11634;42.734;23.298;2022-08-03T06:49:30;7.43;;;4.38;;
22937;SDS011;11634;42.734;23.298;2022-08-03T06:51:55;6.38;;;4.80;;
22937;SDS011;11634;42.734;23.298;2022-08-03T06:54:21;6.57;;;4.45;;
22937;SDS011;11634;42.734;23.298;2022-08-03T06:56:48;6.75;;;3.30;;
22937;SDS011;11634;42.734;23.298;2022-08-03T06:59:14;6.47;;;3.38;;
22937;SDS011;11634;42.734;23.298;2022-08-03T07:01:42;6.63;;;3.50;;
22937;SDS011;11634;42.734;23.298;2022-08-03T07:04:07;6.60;;;3.05;;
22937;SDS011;11634;42.734;23.298;2022-08-03T07:06:33;6.82;;;2.90;;
22937;SDS011;11634;42.734;23.298;2022-08-03T07:09:01;4.88;;;2.60;;
22937;SDS011;11634;42.734;23.298;2022-08-03T07:11:29;4.75;;;2.65;;
22937;SDS011;11634;42.734;23.298;2022-08-03T07:13:55;7.93;;;2.92;;
22937;SDS011;11634;42.734;23.298;2022-08-03T07:16:20;5.72;;;2.63;;
22937;SDS011;11634;42.734;23.298;2022-08-03T07:18:46;4.88;;;2.33;;
22937;SDS011;11634;42.734;23.298;2022-08-03T07:21:11;5.10;;;2.38;;
22937;SDS011;11634;42.734;23.298;2022-08-03T07:23:37;3.17;;;2.22;;
22937;SDS011;11634;42.734;23.298;2022-08-03T07:26:02;6.22;;;2.33;;
22937;SDS011;11634;42.734;23.298;2022-08-03T07:28:28;3.35;;;2.35;;
22937;SDS011;11634;42.734;23.298;2022-08-03T07:30:53;5.78;;;2.75;;
22937;SDS011;11634;42.734;23.298;2022-08-03T07:33:18;4.50;;;2.20;;
22937;SDS011;11634;42.734;23.298;2022-08-03T07:35:44;7.20;;;2.60;;
22937;SDS011;11634;42.734;23.298;2022-08-03T07:38:09;6.22;;;2.92;;
22937;SDS011;11634;42.734;23.298;2022-08-03T07:40:35;5.18;;;2.55;;
22937;SDS011;11634;42.734;23.298;2022-08-03T07:43:00;7.93;;;2.20;;
22937;SDS011;11634;42.734;23.298;2022-08-03T07:45:30;2.55;;;2.20;;
22937;SDS011;11634;42.734;23.298;2022-08-03T07:47:59;8.00;;;2.58;;
22937;SDS011;11634;42.734;23.298;2022-08-03T07:50:24;4.10;;;2.63;;
22937;SDS011;11634;42.734;23.298;2022-08-03T07:52:50;4.90;;;2.17;;
22937;SDS011;11634;42.734;23.298;2022-08-03T07:55:18;4.05;;;2.50;;
22937;SDS011;11634;42.734;23.298;2022-08-03T07:57:43;3.28;;;1.88;;
22937;SDS011;11634;42.734;23.298;2022-08-03T08:00:14;4.20;;;2.10;;
22937;SDS011;11634;42.734;23.298;2022-08-03T08:02:40;3.45;;;2.40;;
22937;SDS011;11634;42.734;23.298;2022-08-03T08:05:06;3.20;;;1.90;;
22937;SDS011;11634;42.734;23.298;2022-08-03T08:07:31;3.75;;;1.98;;
22937;SDS011;11634;42.734;23.298;2022-08-03T08:09:57;4.00;;;1.90;;
22937;SDS011;11634;42.734;23.298;2022-08-03T08:12:22;3.30;;;2.25;;
22937;SDS011;11634;42.734;23.298;2022-08-03T08:14:47;7.00;;;2.65;;
22937;SDS011;11634;42.734;23.298;2022-08-03T08:17:13;3.58;;;2.15;;
22937;SDS011;11634;42.734;23.298;2022-08-03T08:19:38;3.90;;;2.20;;
22937;SDS011;11634;42.734;23.298;2022-08-03T08:22:04;4.03;;;2.28;;
22937;SDS011;11634;42.734;23.298;2022-08-03T08:24:30;2.67;;;2.10;;
22937;SDS011;11634;42.734;23.298;2022-08-03T08:26:58;3.55;;;2.30;;
22937;SDS011;11634;42.734;23.298;2022-08-03T08:29:24;7.10;;;2.45;;
22937;SDS011;11634;42.734;23.298;2022-08-03T08:31:49;2.80;;;2.60;;
22937;SDS011;11634;42.734;23.298;2022-08-03T08:34:15;3.50;;;2.40;;
22937;SDS011;11634;42.734;23.298;2022-08-03T08:36:40;4.13;;;2.20;;
22937;SDS011;11634;42.734;23.298;2022-08-03T08:39:06;2.80;;;1.88;;
22937;SDS011;11634;42.734;23.298;2022-08-03T08:41:31;3.03;;;2.28;;
22937;SDS011;11634;42.734;23.298;2022-08-03T08:43:59;3.30;;;2.50;;
22937;SDS011;11634;42.734;23.298;2022-08-03T08:46:24;3.67;;;1.90;;
22937;SDS011;11634;42.734;23.298;2022-08-03T08:48:50;3.88;;;2.00;;
22937;SDS011;11634;42.734;23.298;2022-08-03T08:51:16;2.22;;;2.03;;
22937;SDS011;11634;42.734;23.298;2022-08-03T08:53:44;2.03;;;1.83;;
22937;SDS011;11634;42.734;23.298;2022-08-03T08:56:12;3.33;;;1.70;;
22937;SDS011;11634;42.734;23.298;2022-08-03T08:58:41;4.75;;;1.77;;
22937;SDS011;11634;42.734;23.298;2022-08-03T09:01:08;4.00;;;2.20;;
22937;SDS011;11634;42.734;23.298;2022-08-03T09:03:34;1.80;;;1.70;;
22937;SDS011;11634;42.734;23.298;2022-08-03T09:06:00;3.38;;;1.50;;
22937;SDS011;11634;42.734;23.298;2022-08-03T09:08:27;1.65;;;1.55;;
22937;SDS011;11634;42.734;23.298;2022-08-03T09:10:52;4.50;;;1.65;;
22937;SDS011;11634;42.734;23.298;2022-08-03T09:13:19;5.70;;;1.70;;
22937;SDS011;11634;42.734;23.298;2022-08-03T09:15:45;2.45;;;1.70;;
22937;SDS011;11634;42.734;23.298;2022-08-03T09:18:10;3.10;;;1.65;;
22937;SDS011;11634;42.734;23.298;2022-08-03T09:20:36;2.35;;;1.58;;
22937;SDS011;11634;42.734;23.298;2022-08-03T09:25:29;1.80;;;1.70;;
22937;SDS011;11634;42.734;23.298;2022-08-03T09:27:56;2.58;;;1.48;;
22937;SDS011;11634;42.734;23.298;2022-08-03T09:30:28;1.23;;;1.13;;
22937;SDS011;11634;42.734;23.298;2022-08-03T09:32:58;3.05;;;1.30;;
22937;SDS011;11634;42.734;23.298;2022-08-03T09:35:30;2.85;;;1.52;;
22937;SDS011;11634;42.734;23.298;2022-08-03T09:40:51;1.30;;;1.20;;
22937;SDS011;11634;42.734;23.298;2022-08-03T09:43:20;1.48;;;1.35;;
22937;SDS011;11634;42.734;23.298;2022-08-03T09:46:01;2.20;;;1.60;;
22937;SDS011;11634;42.734;23.298;2022-08-03T09:48:27;1.63;;;1.52;;
22937;SDS011;11634;42.734;23.298;2022-08-03T09:50:58;3.45;;;2.05;;
22937;SDS011;11634;42.734;23.298;2022-08-03T09:53:25;2.03;;;1.83;;
22937;SDS011;11634;42.734;23.298;2022-08-03T09:55:55;3.03;;;2.55;;
22937;SDS011;11634;42.734;23.298;2022-08-03T09:58:21;5.38;;;1.80;;
22937;SDS011;11634;42.734;23.298;2022-08-03T10:03:18;3.13;;;1.55;;
22937;SDS011;11634;42.734;23.298;2022-08-03T10:05:44;1.70;;;1.58;;
22937;SDS011;11634;42.734;23.298;2022-08-03T10:08:16;1.48;;;1.38;;
22937;SDS011;11634;42.734;23.298;2022-08-03T10:10:43;2.08;;;1.83;;
22937;SDS011;11634;42.734;23.298;2022-08-03T10:13:10;2.28;;;1.60;;
22937;SDS011;11634;42.734;23.298;2022-08-03T10:15:35;3.28;;;1.73;;
22937;SDS011;11634;42.734;23.298;2022-08-03T10:18:03;2.15;;;1.95;;
22937;SDS011;11634;42.734;23.298;2022-08-03T10:20:30;1.80;;;1.58;;
22937;SDS011;11634;42.734;23.298;2022-08-03T10:22:57;2.00;;;1.70;;
22937;SDS011;11634;42.734;23.298;2022-08-03T10:25:24;1.90;;;1.50;;
22937;SDS011;11634;42.734;23.298;2022-08-03T10:27:50;1.58;;;1.48;;
22937;SDS011;11634;42.734;23.298;2022-08-03T10:30:16;2.80;;;1.52;;
22937;SDS011;11634;42.734;23.298;2022-08-03T10:32:43;2.78;;;1.52;;
22937;SDS011;11634;42.734;23.298;2022-08-03T10:37:42;1.85;;;1.65;;
22937;SDS011;11634;42.734;23.298;2022-08-03T10:40:12;3.05;;;1.60;;
22937;SDS011;11634;42.734;23.298;2022-08-03T10:42:40;1.50;;;1.40;;
22937;SDS011;11634;42.734;23.298;2022-08-03T10:45:06;1.52;;;1.42;;
22937;SDS011;11634;42.734;23.298;2022-08-03T10:47:35;1.60;;;1.50;;
22937;SDS011;11634;42.734;23.298;2022-08-03T10:50:02;1.60;;;1.50;;
22937;SDS011;11634;42.734;23.298;2022-08-03T10:52:27;1.70;;;1.50;;
22937;SDS011;11634;42.734;23.298;2022-08-03T10:54:54;2.70;;;1.40;;
22937;SDS011;11634;42.734;23.298;2022-08-03T10:57:50;1.98;;;1.50;;
22937;SDS011;11634;42.734;23.298;2022-08-03T11:00:23;2.08;;;1.50;;
22937;SDS011;11634;42.734;23.298;2022-08-03T11:03:11;1.40;;;1.27;;
22937;SDS011;11634;42.734;23.298;2022-08-03T11:05:45;4.07;;;1.60;;
22937;SDS011;11634;42.734;23.298;2022-08-03T11:08:28;3.17;;;1.40;;
22937;SDS011;11634;42.734;23.298;2022-08-03T11:10:54;1.48;;;1.38;;
22937;SDS011;11634;42.734;23.298;2022-08-03T11:13:22;2.17;;;1.60;;
22937;SDS011;11634;42.734;23.298;2022-08-03T11:15:48;1.50;;;1.40;;
22937;SDS011;11634;42.734;23.298;2022-08-03T11:18:15;3.17;;;1.52;;
22937;SDS011;11634;42.734;23.298;2022-08-03T11:20:54;1.52;;;1.33;;
22937;SDS011;11634;42.734;23.298;2022-08-03T11:28:33;1.85;;;1.48;;
22937;SDS011;11634;42.734;23.298;2022-08-03T11:33:44;1.20;;;1.20;;
22937;SDS011;11634;42.734;23.298;2022-08-03T11:36:26;1.50;;;1.25;;
22937;SDS011;11634;42.734;23.298;2022-08-03T11:41:37;1.75;;;1.55;;
22937;SDS011;11634;42.734;23.298;2022-08-03T11:44:03;2.95;;;1.60;;
22937;SDS011;11634;42.734;23.298;2022-08-03T11:46:28;1.60;;;1.50;;
22937;SDS011;11634;42.734;23.298;2022-08-03T11:49:02;1.75;;;1.65;;
22937;SDS011;11634;42.734;23.298;2022-08-03T11:51:28;2.28;;;1.60;;
22937;SDS011;11634;42.734;23.298;2022-08-03T11:53:55;1.73;;;1.63;;
22937;SDS011;11634;42.734;23.298;2022-08-03T11:56:21;1.70;;;1.60;;
22937;SDS011;11634;42.734;23.298;2022-08-03T11:58:47;1.77;;;1.67;;
22937;SDS011;11634;42.734;23.298;2022-08-03T12:01:13;2.17;;;1.80;;
22937;SDS011;11634;42.734;23.298;2022-08-03T12:03:41;2.17;;;1.60;;
22937;SDS011;11634;42.734;23.298;2022-08-03T12:06:11;1.70;;;1.60;;
22937;SDS011;11634;42.734;23.298;2022-08-03T12:08:37;2.28;;;1.40;;
22937;SDS011;11634;42.734;23.298;2022-08-03T12:11:03;2.15;;;1.70;;
22937;SDS011;11634;42.734;23.298;2022-08-03T12:16:02;1.52;;;1.38;;
22937;SDS011;11634;42.734;23.298;2022-08-03T12:18:28;2.10;;;1.50;;
22937;SDS011;11634;42.734;23.298;2022-08-03T12:21:02;3.08;;;1.55;;
22937;SDS011;11634;42.734;23.298;2022-08-03T12:23:35;2.08;;;1.88;;
22937;SDS011;11634;42.734;23.298;2022-08-03T12:26:07;3.53;;;1.45;;
22937;SDS011;11634;42.734;23.298;2022-08-03T12:28:33;1.50;;;1.40;;
22937;SDS011;11634;42.734;23.298;2022-08-03T12:31:00;5.18;;;2.60;;
22937;SDS011;11634;42.734;23.298;2022-08-03T12:33:26;2.08;;;1.80;;
22937;SDS011;11634;42.734;23.298;2022-08-03T12:36:02;1.80;;;1.58;;
22937;SDS011;11634;42.734;23.298;2022-08-03T12:38:29;1.73;;;1.63;;
22937;SDS011;11634;42.734;23.298;2022-08-03T12:40:59;3.97;;;1.95;;
22937;SDS011;11634;42.734;23.298;2022-08-03T12:43:25;2.47;;;2.00;;
22937;SDS011;11634;42.734;23.298;2022-08-03T12:45:50;2.65;;;1.70;;
22937;SDS011;11634;42.734;23.298;2022-08-03T12:48:16;2.50;;;1.63;;
22937;SDS011;11634;42.734;23.298;2022-08-03T12:50:41;2.50;;;1.65;;
22937;SDS011;11634;42.734;23.298;2022-08-03T12:53:07;2.78;;;1.70;;
22937;SDS011;11634;42.734;23.298;2022-08-03T12:55:35;3.25;;;1.67;;
22937;SDS011;11634;42.734;23.298;2022-08-03T12:58:04;2.78;;;1.60;;
22937;SDS011;11634;42.734;23.298;2022-08-03T13:00:30;2.78;;;1.80;;
22937;SDS011;11634;42.734;23.298;2022-08-03T13:02:59;2.30;;;1.80;;
22937;SDS011;11634;42.734;23.298;2022-08-03T13:05:25;1.98;;;1.75;;
22937;SDS011;11634;42.734;23.298;2022-08-03T13:07:51;1.70;;;1.60;;
22937;SDS011;11634;42.734;23.298;2022-08-03T13:10:30;2.78;;;1.80;;
22937;SDS011;11634;42.734;23.298;2022-08-03T13:12:56;2.15;;;1.67;;
22937;SDS011;11634;42.734;23.298;2022-08-03T13:15:24;1.90;;;1.58;;
22937;SDS011;11634;42.734;23.298;2022-08-03T13:17:52;2.22;;;1.70;;
22937;SDS011;11634;42.734;23.298;2022-08-03T13:20:17;1.85;;;1.75;;
22937;SDS011;11634;42.734;23.298;2022-08-03T13:22:45;2.40;;;1.95;;
22937;SDS011;11634;42.734;23.298;2022-08-03T13:25:11;2.20;;;2.00;;
22937;SDS011;11634;42.734;23.298;2022-08-03T13:27:36;1.65;;;1.55;;
22937;SDS011;11634;42.734;23.298;2022-08-03T13:30:02;2.67;;;1.80;;
22937;SDS011;11634;42.734;23.298;2022-08-03T13:32:30;2.00;;;1.83;;
22937;SDS011;11634;42.734;23.298;2022-08-03T13:34:55;2.08;;;1.80;;
22937;SDS011;11634;42.734;23.298;2022-08-03T13:37:21;2.15;;;1.73;;
22937;SDS011;11634;42.734;23.298;2022-08-03T13:39:46;3.08;;;1.52;;
22937;SDS011;11634;42.734;23.298;2022-08-03T13:42:12;2.17;;;1.77;;
22937;SDS011;11634;42.734;23.298;2022-08-03T13:44:37;1.85;;;1.70;;
22937;SDS011;11634;42.734;23.298;2022-08-03T13:47:03;1.67;;;1.50;;
22937;SDS011;11634;42.734;23.298;2022-08-03T13:49:28;1.77;;;1.67;;
22937;SDS011;11634;42.734;23.298;2022-08-03T13:51:54;2.75;;;1.83;;
22937;SDS011;11634;42.734;23.298;2022-08-03T13:54:20;2.00;;;1.30;;
22937;SDS011;11634;42.734;23.298;2022-08-03T13:56:45;2.75;;;1.63;;
22937;SDS011;11634;42.734;23.298;2022-08-03T13:59:20;3.33;;;2.33;;
22937;SDS011;11634;42.734;23.298;2022-08-03T14:01:46;1.88;;;1.77;;
22937;SDS011;11634;42.734;23.298;2022-08-03T14:04:11;3.42;;;1.73;;
22937;SDS011;11634;42.734;23.298;2022-08-03T14:06:37;3.53;;;1.83;;
22937;SDS011;11634;42.734;23.298;2022-08-03T14:09:04;1.70;;;1.60;;
22937;SDS011;11634;42.734;23.298;2022-08-03T14:11:29;2.03;;;1.77;;
22937;SDS011;11634;42.734;23.298;2022-08-03T14:13:54;2.20;;;1.75;;
22937;SDS011;11634;42.734;23.298;2022-08-03T14:16:20;2.83;;;1.92;;
22937;SDS011;11634;42.734;23.298;2022-08-03T14:18:45;5.25;;;1.60;;
22937;SDS011;11634;42.734;23.298;2022-08-03T14:21:11;3.58;;;1.60;;
22937;SDS011;11634;42.734;23.298;2022-08-03T14:23:36;2.70;;;1.80;;
22937;SDS011;11634;42.734;23.298;2022-08-03T14:26:03;4.25;;;1.73;;
22937;SDS011;11634;42.734;23.298;2022-08-03T14:28:28;1.65;;;1.55;;
22937;SDS011;11634;42.734;23.298;2022-08-03T14:30:54;1.90;;;1.70;;
22937;SDS011;11634;42.734;23.298;2022-08-03T14:33:22;3.78;;;1.70;;
22937;SDS011;11634;42.734;23.298;2022-08-03T14:35:48;3.13;;;1.95;;
22937;SDS011;11634;42.734;23.298;2022-08-03T14:38:14;5.07;;;1.88;;
22937;SDS011;11634;42.734;23.298;2022-08-03T14:40:39;3.40;;;1.55;;
22937;SDS011;11634;42.734;23.298;2022-08-03T14:43:05;6.57;;;1.90;;
22937;SDS011;11634;42.734;23.298;2022-08-03T14:45:30;2.95;;;2.00;;
22937;SDS011;11634;42.734;23.298;2022-08-03T14:47:56;2.78;;;1.73;;
22937;SDS011;11634;42.734;23.298;2022-08-03T14:50:24;4.30;;;2.10;;
22937;SDS011;11634;42.734;23.298;2022-08-03T14:52:49;3.13;;;2.45;;
22937;SDS011;11634;42.734;23.298;2022-08-03T14:55:15;2.80;;;2.45;;
22937;SDS011;11634;42.734;23.298;2022-08-03T14:57:40;6.53;;;2.67;;
22937;SDS011;11634;42.734;23.298;2022-08-03T15:00:06;4.75;;;2.08;;
22937;SDS011;11634;42.734;23.298;2022-08-03T15:02:32;4.15;;;2.20;;
22937;SDS011;11634;42.734;23.298;2022-08-03T15:04:58;7.40;;;1.98;;
22937;SDS011;11634;42.734;23.298;2022-08-03T15:07:24;2.65;;;2.25;;
22937;SDS011;11634;42.734;23.298;2022-08-03T15:09:49;6.10;;;2.65;;
22937;SDS011;11634;42.734;23.298;2022-08-03T15:12:14;5.10;;;2.30;;